עמוד ראשי
METAR-TAF:

METAR-TAF

שדות תעופה :

Nouméa, קלדוניה החדשה

קו רוחב: 22-15-30S, קו אורך: 166-28-22E, גובה: 3מטר

METAR: חסר

זמן: 11:40 (00:40 UTC)

תחזית

הדו"ח נערך לפני 1 שעות ו 40דקות, בשעה 23:00 UTC
תחזית בתוקף מ 13 ב 00 UTC עד 13 ב 24 UTC
רוח 15קשר מכיוון מערב/צפון-מערב
ראות 10 קילומטר או יותר
מעט עננים בגובה 4000רגל
עננים פזורים בגובה 6000רגל
זמנית מ -
13 ב 04 UTC עד 13 ב 18 UTC
ממטרי גשם
הסתברות 40% :
זמנית מ -
13 ב 06 UTC עד 13 ב 12 UTC
ראות: 4500מטר
עננים בינוניים בגובה 1400רגל
מעט עננים בגובה 1500רגל , קומולוס מיגדלי.
ממטרי גשם
יעשה מ
13 ב 10 UTC עד 13 ב 12 UTC
רוח 5קשר מכיוון מערב

TAF: NWWM 122300Z 1300/1324 30015KT 9999 FEW040 SCT060 TEMPO 1304/1318 SHRA PROB40 TEMPO 1306/1312 4500 SHRA BKN014 FEW015TCU BECMG 1310/1312 26005KT

תצפיות ותחזיות מזג אוויר לגבי יותר מ- 4,000 שדות תעופה ברחבי העולם. דוחות METAR ו- TAF.

התחנות הזמינות מסומנות בנקודות צהובות ואדומות על גבי המפה.

העבר את העכבר לנקודה הצבעונית על מנת לראות את שם התחנה.

לאחר מכן, לחץ כדי לראות את תוכן ואת תחזיות מזג האוויר.

כדי לשנות את המפה: לחץ על הכפתורים הירוקים עם הפלוס השחור כדי להתקרב; על הכפתור הירוק עם המקף כדי להתרחק; או בחיצים הירוקים למפות סמוכות.


METAR-TAF: